sensor_id;sensor_type;location;lat;lon;timestamp;P1;durP1;ratioP1;P2;durP2;ratioP2
64826;SDS011;51265;53.972;12.286;2022-08-21T00:01:39;11.45;;;2.20;;
64826;SDS011;51265;53.972;12.286;2022-08-21T00:04:06;8.85;;;1.85;;
64826;SDS011;51265;53.972;12.286;2022-08-21T00:06:33;6.65;;;2.05;;
64826;SDS011;51265;53.972;12.286;2022-08-21T00:09:00;9.35;;;2.38;;
64826;SDS011;51265;53.972;12.286;2022-08-21T00:11:26;10.13;;;2.42;;
64826;SDS011;51265;53.972;12.286;2022-08-21T00:13:53;10.90;;;2.38;;
64826;SDS011;51265;53.972;12.286;2022-08-21T00:16:19;7.25;;;2.10;;
64826;SDS011;51265;53.972;12.286;2022-08-21T00:18:45;7.90;;;2.20;;
64826;SDS011;51265;53.972;12.286;2022-08-21T00:21:11;5.45;;;2.42;;
64826;SDS011;51265;53.972;12.286;2022-08-21T00:23:39;5.93;;;2.10;;
64826;SDS011;51265;53.972;12.286;2022-08-21T00:26:05;7.40;;;2.30;;
64826;SDS011;51265;53.972;12.286;2022-08-21T00:28:31;10.20;;;2.30;;
64826;SDS011;51265;53.972;12.286;2022-08-21T00:30:57;8.38;;;2.53;;
64826;SDS011;51265;53.972;12.286;2022-08-21T00:33:23;8.57;;;2.10;;
64826;SDS011;51265;53.972;12.286;2022-08-21T00:35:49;6.45;;;2.25;;
64826;SDS011;51265;53.972;12.286;2022-08-21T00:38:15;6.13;;;2.80;;
64826;SDS011;51265;53.972;12.286;2022-08-21T00:40:50;8.68;;;2.40;;
64826;SDS011;51265;53.972;12.286;2022-08-21T00:43:22;6.82;;;2.30;;
64826;SDS011;51265;53.972;12.286;2022-08-21T00:45:50;10.50;;;2.70;;
64826;SDS011;51265;53.972;12.286;2022-08-21T00:48:16;8.38;;;2.47;;
64826;SDS011;51265;53.972;12.286;2022-08-21T00:50:50;12.88;;;2.78;;
64826;SDS011;51265;53.972;12.286;2022-08-21T00:53:21;6.63;;;2.80;;
64826;SDS011;51265;53.972;12.286;2022-08-21T00:55:47;9.30;;;2.65;;
64826;SDS011;51265;53.972;12.286;2022-08-21T00:58:14;7.57;;;2.60;;
64826;SDS011;51265;53.972;12.286;2022-08-21T01:00:42;5.60;;;2.83;;
64826;SDS011;51265;53.972;12.286;2022-08-21T01:03:11;9.07;;;2.30;;
64826;SDS011;51265;53.972;12.286;2022-08-21T01:05:40;8.05;;;2.22;;
64826;SDS011;51265;53.972;12.286;2022-08-21T01:08:07;8.40;;;2.42;;
64826;SDS011;51265;53.972;12.286;2022-08-21T01:10:34;10.80;;;2.40;;
64826;SDS011;51265;53.972;12.286;2022-08-21T01:13:01;11.48;;;3.25;;
64826;SDS011;51265;53.972;12.286;2022-08-21T01:15:31;7.90;;;2.60;;
64826;SDS011;51265;53.972;12.286;2022-08-21T01:18:02;9.38;;;2.85;;
64826;SDS011;51265;53.972;12.286;2022-08-21T01:20:29;9.93;;;3.13;;
64826;SDS011;51265;53.972;12.286;2022-08-21T01:22:55;9.30;;;3.05;;
64826;SDS011;51265;53.972;12.286;2022-08-21T01:25:21;10.60;;;2.90;;
64826;SDS011;51265;53.972;12.286;2022-08-21T01:27:47;12.07;;;3.10;;
64826;SDS011;51265;53.972;12.286;2022-08-21T01:30:18;9.00;;;3.03;;
64826;SDS011;51265;53.972;12.286;2022-08-21T01:32:47;5.60;;;2.58;;
64826;SDS011;51265;53.972;12.286;2022-08-21T01:35:14;10.65;;;3.13;;
64826;SDS011;51265;53.972;12.286;2022-08-21T01:37:41;11.65;;;3.28;;
64826;SDS011;51265;53.972;12.286;2022-08-21T01:40:08;6.90;;;2.95;;
64826;SDS011;51265;53.972;12.286;2022-08-21T01:42:34;13.85;;;3.67;;
64826;SDS011;51265;53.972;12.286;2022-08-21T01:45:00;5.30;;;2.88;;
64826;SDS011;51265;53.972;12.286;2022-08-21T01:47:27;7.97;;;3.08;;
64826;SDS011;51265;53.972;12.286;2022-08-21T01:49:52;7.13;;;3.30;;
64826;SDS011;51265;53.972;12.286;2022-08-21T01:52:18;9.45;;;3.03;;
64826;SDS011;51265;53.972;12.286;2022-08-21T01:54:44;17.55;;;3.30;;
64826;SDS011;51265;53.972;12.286;2022-08-21T01:57:11;10.32;;;2.90;;
64826;SDS011;51265;53.972;12.286;2022-08-21T01:59:37;8.43;;;3.20;;
64826;SDS011;51265;53.972;12.286;2022-08-21T02:02:03;10.63;;;2.80;;
64826;SDS011;51265;53.972;12.286;2022-08-21T02:04:29;6.95;;;2.92;;
64826;SDS011;51265;53.972;12.286;2022-08-21T02:06:56;8.38;;;3.00;;
64826;SDS011;51265;53.972;12.286;2022-08-21T02:09:22;10.45;;;3.47;;
64826;SDS011;51265;53.972;12.286;2022-08-21T02:11:47;9.48;;;3.30;;
64826;SDS011;51265;53.972;12.286;2022-08-21T02:14:14;13.20;;;3.45;;
64826;SDS011;51265;53.972;12.286;2022-08-21T02:16:41;7.60;;;3.42;;
64826;SDS011;51265;53.972;12.286;2022-08-21T02:19:09;11.13;;;4.03;;
64826;SDS011;51265;53.972;12.286;2022-08-21T02:21:36;8.63;;;3.42;;
64826;SDS011;51265;53.972;12.286;2022-08-21T02:24:02;14.30;;;3.40;;
64826;SDS011;51265;53.972;12.286;2022-08-21T02:26:29;12.13;;;3.67;;
64826;SDS011;51265;53.972;12.286;2022-08-21T02:28:55;7.57;;;3.25;;
64826;SDS011;51265;53.972;12.286;2022-08-21T02:31:21;9.07;;;3.67;;
64826;SDS011;51265;53.972;12.286;2022-08-21T02:33:47;8.13;;;3.92;;
64826;SDS011;51265;53.972;12.286;2022-08-21T02:36:13;11.68;;;4.13;;
64826;SDS011;51265;53.972;12.286;2022-08-21T02:38:40;12.52;;;4.07;;
64826;SDS011;51265;53.972;12.286;2022-08-21T02:41:08;8.10;;;3.80;;
64826;SDS011;51265;53.972;12.286;2022-08-21T02:43:45;10.55;;;4.40;;
64826;SDS011;51265;53.972;12.286;2022-08-21T02:46:11;14.20;;;4.65;;
64826;SDS011;51265;53.972;12.286;2022-08-21T02:48:39;10.02;;;4.53;;
64826;SDS011;51265;53.972;12.286;2022-08-21T02:51:07;9.85;;;4.53;;
64826;SDS011;51265;53.972;12.286;2022-08-21T02:53:38;10.90;;;4.60;;
64826;SDS011;51265;53.972;12.286;2022-08-21T02:56:22;13.02;;;5.07;;
64826;SDS011;51265;53.972;12.286;2022-08-21T02:58:50;14.20;;;4.85;;
64826;SDS011;51265;53.972;12.286;2022-08-21T03:01:17;13.07;;;5.03;;
64826;SDS011;51265;53.972;12.286;2022-08-21T03:03:44;12.63;;;5.15;;
64826;SDS011;51265;53.972;12.286;2022-08-21T03:06:12;12.15;;;5.20;;
64826;SDS011;51265;53.972;12.286;2022-08-21T03:08:40;11.40;;;5.57;;
64826;SDS011;51265;53.972;12.286;2022-08-21T03:11:06;11.48;;;6.05;;
64826;SDS011;51265;53.972;12.286;2022-08-21T03:13:33;15.52;;;5.88;;
64826;SDS011;51265;53.972;12.286;2022-08-21T03:15:59;10.98;;;5.45;;
64826;SDS011;51265;53.972;12.286;2022-08-21T03:18:25;11.32;;;5.07;;
64826;SDS011;51265;53.972;12.286;2022-08-21T03:20:50;9.88;;;5.03;;
64826;SDS011;51265;53.972;12.286;2022-08-21T03:23:17;16.92;;;5.35;;
64826;SDS011;51265;53.972;12.286;2022-08-21T03:25:44;15.48;;;5.28;;
64826;SDS011;51265;53.972;12.286;2022-08-21T03:28:12;11.73;;;5.20;;
64826;SDS011;51265;53.972;12.286;2022-08-21T03:30:42;9.63;;;4.82;;
64826;SDS011;51265;53.972;12.286;2022-08-21T03:33:09;9.85;;;5.18;;
64826;SDS011;51265;53.972;12.286;2022-08-21T03:35:35;13.20;;;5.50;;
64826;SDS011;51265;53.972;12.286;2022-08-21T03:38:01;19.20;;;8.45;;
64826;SDS011;51265;53.972;12.286;2022-08-21T03:40:27;10.45;;;5.57;;
64826;SDS011;51265;53.972;12.286;2022-08-21T03:42:53;16.05;;;5.85;;
64826;SDS011;51265;53.972;12.286;2022-08-21T03:45:19;16.25;;;6.10;;
64826;SDS011;51265;53.972;12.286;2022-08-21T03:47:53;13.50;;;6.45;;
64826;SDS011;51265;53.972;12.286;2022-08-21T03:50:27;10.30;;;5.72;;
64826;SDS011;51265;53.972;12.286;2022-08-21T03:52:56;12.38;;;6.53;;
64826;SDS011;51265;53.972;12.286;2022-08-21T03:55:22;13.40;;;6.30;;
64826;SDS011;51265;53.972;12.286;2022-08-21T03:57:48;12.18;;;6.50;;
64826;SDS011;51265;53.972;12.286;2022-08-21T04:00:15;15.45;;;6.10;;
64826;SDS011;51265;53.972;12.286;2022-08-21T04:02:42;11.25;;;6.05;;
64826;SDS011;51265;53.972;12.286;2022-08-21T04:05:09;13.05;;;6.55;;
64826;SDS011;51265;53.972;12.286;2022-08-21T04:07:38;16.65;;;6.80;;
64826;SDS011;51265;53.972;12.286;2022-08-21T04:10:05;17.10;;;6.90;;
64826;SDS011;51265;53.972;12.286;2022-08-21T04:12:32;12.55;;;6.85;;
64826;SDS011;51265;53.972;12.286;2022-08-21T04:14:58;14.60;;;6.85;;
64826;SDS011;51265;53.972;12.286;2022-08-21T04:17:24;14.57;;;6.93;;
64826;SDS011;51265;53.972;12.286;2022-08-21T04:19:50;13.32;;;7.20;;
64826;SDS011;51265;53.972;12.286;2022-08-21T04:22:16;13.00;;;6.82;;
64826;SDS011;51265;53.972;12.286;2022-08-21T04:24:42;14.82;;;7.72;;
64826;SDS011;51265;53.972;12.286;2022-08-21T04:27:07;15.93;;;7.50;;
64826;SDS011;51265;53.972;12.286;2022-08-21T04:29:33;13.75;;;7.70;;
64826;SDS011;51265;53.972;12.286;2022-08-21T04:31:59;13.50;;;7.85;;
64826;SDS011;51265;53.972;12.286;2022-08-21T04:34:25;15.25;;;7.70;;
64826;SDS011;51265;53.972;12.286;2022-08-21T04:36:51;13.35;;;8.23;;
64826;SDS011;51265;53.972;12.286;2022-08-21T04:39:17;20.90;;;8.40;;
64826;SDS011;51265;53.972;12.286;2022-08-21T04:41:42;19.10;;;8.95;;
64826;SDS011;51265;53.972;12.286;2022-08-21T04:44:08;20.80;;;8.35;;
64826;SDS011;51265;53.972;12.286;2022-08-21T04:46:34;13.35;;;8.18;;
64826;SDS011;51265;53.972;12.286;2022-08-21T04:49:00;17.80;;;8.20;;
64826;SDS011;51265;53.972;12.286;2022-08-21T04:51:30;16.40;;;7.40;;
64826;SDS011;51265;53.972;12.286;2022-08-21T04:54:10;12.65;;;7.70;;
64826;SDS011;51265;53.972;12.286;2022-08-21T04:56:41;17.58;;;8.70;;
64826;SDS011;51265;53.972;12.286;2022-08-21T04:59:19;20.05;;;7.82;;
64826;SDS011;51265;53.972;12.286;2022-08-21T05:01:48;14.38;;;7.50;;
64826;SDS011;51265;53.972;12.286;2022-08-21T05:04:15;16.17;;;7.30;;
64826;SDS011;51265;53.972;12.286;2022-08-21T05:06:46;16.40;;;7.20;;
64826;SDS011;51265;53.972;12.286;2022-08-21T05:09:14;10.20;;;6.82;;
64826;SDS011;51265;53.972;12.286;2022-08-21T05:11:42;12.45;;;6.97;;
64826;SDS011;51265;53.972;12.286;2022-08-21T05:14:09;19.05;;;7.35;;
64826;SDS011;51265;53.972;12.286;2022-08-21T05:16:36;14.50;;;6.63;;
64826;SDS011;51265;53.972;12.286;2022-08-21T05:19:04;12.45;;;6.82;;
64826;SDS011;51265;53.972;12.286;2022-08-21T05:21:31;16.85;;;6.20;;
64826;SDS011;51265;53.972;12.286;2022-08-21T05:23:57;15.18;;;6.13;;
64826;SDS011;51265;53.972;12.286;2022-08-21T05:26:23;15.73;;;5.75;;
64826;SDS011;51265;53.972;12.286;2022-08-21T05:28:49;14.13;;;5.57;;
64826;SDS011;51265;53.972;12.286;2022-08-21T05:31:14;12.52;;;4.95;;
64826;SDS011;51265;53.972;12.286;2022-08-21T05:33:40;11.45;;;5.22;;
64826;SDS011;51265;53.972;12.286;2022-08-21T05:36:06;11.70;;;5.40;;
64826;SDS011;51265;53.972;12.286;2022-08-21T05:38:32;11.85;;;4.90;;
64826;SDS011;51265;53.972;12.286;2022-08-21T05:40:58;9.52;;;5.20;;
64826;SDS011;51265;53.972;12.286;2022-08-21T05:43:23;13.90;;;5.82;;
64826;SDS011;51265;53.972;12.286;2022-08-21T05:45:49;21.10;;;5.50;;
64826;SDS011;51265;53.972;12.286;2022-08-21T05:48:22;8.63;;;4.88;;
64826;SDS011;51265;53.972;12.286;2022-08-21T05:50:50;13.98;;;5.63;;
64826;SDS011;51265;53.972;12.286;2022-08-21T05:53:17;11.25;;;5.25;;
64826;SDS011;51265;53.972;12.286;2022-08-21T05:55:45;15.70;;;6.22;;
64826;SDS011;51265;53.972;12.286;2022-08-21T05:58:14;12.73;;;4.75;;
64826;SDS011;51265;53.972;12.286;2022-08-21T06:00:43;12.57;;;5.65;;
64826;SDS011;51265;53.972;12.286;2022-08-21T06:03:12;12.63;;;5.15;;
64826;SDS011;51265;53.972;12.286;2022-08-21T06:05:39;12.20;;;4.88;;
64826;SDS011;51265;53.972;12.286;2022-08-21T06:08:05;11.10;;;4.80;;
64826;SDS011;51265;53.972;12.286;2022-08-21T06:10:31;10.48;;;4.75;;
64826;SDS011;51265;53.972;12.286;2022-08-21T06:12:57;12.95;;;4.72;;
64826;SDS011;51265;53.972;12.286;2022-08-21T06:15:22;11.57;;;5.15;;
64826;SDS011;51265;53.972;12.286;2022-08-21T06:17:48;14.00;;;5.32;;
64826;SDS011;51265;53.972;12.286;2022-08-21T06:20:14;13.77;;;5.05;;
64826;SDS011;51265;53.972;12.286;2022-08-21T06:22:40;13.70;;;5.70;;
64826;SDS011;51265;53.972;12.286;2022-08-21T06:25:07;8.40;;;5.25;;
64826;SDS011;51265;53.972;12.286;2022-08-21T06:27:34;12.15;;;4.90;;
64826;SDS011;51265;53.972;12.286;2022-08-21T06:30:00;12.90;;;5.43;;
64826;SDS011;51265;53.972;12.286;2022-08-21T06:32:26;12.18;;;5.65;;
64826;SDS011;51265;53.972;12.286;2022-08-21T06:34:51;16.00;;;5.28;;
64826;SDS011;51265;53.972;12.286;2022-08-21T06:37:17;11.75;;;4.95;;
64826;SDS011;51265;53.972;12.286;2022-08-21T06:39:43;11.30;;;5.00;;
64826;SDS011;51265;53.972;12.286;2022-08-21T06:42:13;12.20;;;4.85;;
64826;SDS011;51265;53.972;12.286;2022-08-21T06:44:40;12.55;;;4.82;;
64826;SDS011;51265;53.972;12.286;2022-08-21T06:47:06;11.38;;;4.05;;
64826;SDS011;51265;53.972;12.286;2022-08-21T06:49:32;7.97;;;4.15;;
64826;SDS011;51265;53.972;12.286;2022-08-21T06:51:57;14.25;;;4.10;;
64826;SDS011;51265;53.972;12.286;2022-08-21T06:54:23;8.43;;;3.70;;
64826;SDS011;51265;53.972;12.286;2022-08-21T06:56:49;8.90;;;3.65;;
64826;SDS011;51265;53.972;12.286;2022-08-21T06:59:15;11.70;;;3.55;;
64826;SDS011;51265;53.972;12.286;2022-08-21T07:01:41;11.70;;;3.97;;
64826;SDS011;51265;53.972;12.286;2022-08-21T07:04:07;11.63;;;3.63;;
64826;SDS011;51265;53.972;12.286;2022-08-21T07:06:32;10.55;;;3.35;;
64826;SDS011;51265;53.972;12.286;2022-08-21T07:08:58;14.02;;;3.75;;
64826;SDS011;51265;53.972;12.286;2022-08-21T07:11:24;10.85;;;3.45;;
64826;SDS011;51265;53.972;12.286;2022-08-21T07:13:51;11.40;;;3.60;;
64826;SDS011;51265;53.972;12.286;2022-08-21T07:16:19;10.48;;;3.33;;
64826;SDS011;51265;53.972;12.286;2022-08-21T07:18:45;10.00;;;3.22;;
64826;SDS011;51265;53.972;12.286;2022-08-21T07:21:11;10.07;;;2.90;;
64826;SDS011;51265;53.972;12.286;2022-08-21T07:23:41;13.68;;;3.17;;
64826;SDS011;51265;53.972;12.286;2022-08-21T07:26:09;7.38;;;2.15;;
64826;SDS011;51265;53.972;12.286;2022-08-21T07:28:36;5.22;;;2.45;;
64826;SDS011;51265;53.972;12.286;2022-08-21T07:31:03;10.32;;;3.10;;
64826;SDS011;51265;53.972;12.286;2022-08-21T07:33:30;10.13;;;2.80;;
64826;SDS011;51265;53.972;12.286;2022-08-21T07:35:57;7.03;;;2.65;;
64826;SDS011;51265;53.972;12.286;2022-08-21T07:38:24;12.68;;;2.03;;
64826;SDS011;51265;53.972;12.286;2022-08-21T07:40:51;11.57;;;2.47;;
64826;SDS011;51265;53.972;12.286;2022-08-21T07:43:19;6.38;;;2.30;;
64826;SDS011;51265;53.972;12.286;2022-08-21T07:45:47;7.95;;;2.50;;
64826;SDS011;51265;53.972;12.286;2022-08-21T07:48:15;6.60;;;2.13;;
64826;SDS011;51265;53.972;12.286;2022-08-21T07:50:42;6.55;;;1.73;;
64826;SDS011;51265;53.972;12.286;2022-08-21T07:53:08;8.48;;;2.05;;
64826;SDS011;51265;53.972;12.286;2022-08-21T07:55:34;8.23;;;1.67;;
64826;SDS011;51265;53.972;12.286;2022-08-21T07:58:00;7.93;;;1.73;;
64826;SDS011;51265;53.972;12.286;2022-08-21T08:00:26;6.68;;;1.55;;
64826;SDS011;51265;53.972;12.286;2022-08-21T08:02:54;8.77;;;2.22;;
64826;SDS011;51265;53.972;12.286;2022-08-21T08:05:28;7.40;;;1.75;;
64826;SDS011;51265;53.972;12.286;2022-08-21T08:07:55;14.75;;;2.10;;
64826;SDS011;51265;53.972;12.286;2022-08-21T08:10:22;5.55;;;1.70;;
64826;SDS011;51265;53.972;12.286;2022-08-21T08:12:49;5.55;;;1.48;;
64826;SDS011;51265;53.972;12.286;2022-08-21T08:15:18;6.38;;;1.42;;
64826;SDS011;51265;53.972;12.286;2022-08-21T08:17:45;7.82;;;1.70;;
64826;SDS011;51265;53.972;12.286;2022-08-21T08:20:13;5.60;;;1.50;;
64826;SDS011;51265;53.972;12.286;2022-08-21T08:22:40;7.95;;;1.70;;
64826;SDS011;51265;53.972;12.286;2022-08-21T08:25:08;7.72;;;1.40;;
64826;SDS011;51265;53.972;12.286;2022-08-21T08:27:36;4.03;;;1.25;;
64826;SDS011;51265;53.972;12.286;2022-08-21T08:30:03;10.02;;;1.92;;
64826;SDS011;51265;53.972;12.286;2022-08-21T08:32:30;4.47;;;1.45;;
64826;SDS011;51265;53.972;12.286;2022-08-21T08:34:56;7.22;;;1.42;;
64826;SDS011;51265;53.972;12.286;2022-08-21T08:37:22;8.85;;;1.40;;
64826;SDS011;51265;53.972;12.286;2022-08-21T08:39:48;10.90;;;1.67;;
64826;SDS011;51265;53.972;12.286;2022-08-21T08:42:16;5.25;;;1.70;;
64826;SDS011;51265;53.972;12.286;2022-08-21T08:44:50;10.20;;;1.77;;
64826;SDS011;51265;53.972;12.286;2022-08-21T08:47:22;6.22;;;1.40;;
64826;SDS011;51265;53.972;12.286;2022-08-21T08:50:14;5.85;;;1.48;;
64826;SDS011;51265;53.972;12.286;2022-08-21T08:52:59;7.47;;;1.58;;
64826;SDS011;51265;53.972;12.286;2022-08-21T08:55:39;7.28;;;1.63;;
64826;SDS011;51265;53.972;12.286;2022-08-21T08:58:16;7.18;;;1.30;;
64826;SDS011;51265;53.972;12.286;2022-08-21T09:00:49;5.97;;;1.70;;
64826;SDS011;51265;53.972;12.286;2022-08-21T09:03:16;7.03;;;1.65;;
64826;SDS011;51265;53.972;12.286;2022-08-21T09:05:46;7.32;;;1.63;;
64826;SDS011;51265;53.972;12.286;2022-08-21T09:08:46;7.20;;;1.58;;
64826;SDS011;51265;53.972;12.286;2022-08-21T09:11:26;5.47;;;1.73;;
64826;SDS011;51265;53.972;12.286;2022-08-21T09:25:13;6.25;;;1.65;;
64826;SDS011;51265;53.972;12.286;2022-08-21T09:27:46;7.82;;;1.98;;
64826;SDS011;51265;53.972;12.286;2022-08-21T09:30:12;4.38;;;1.25;;
64826;SDS011;51265;53.972;12.286;2022-08-21T09:32:38;6.07;;;1.65;;
64826;SDS011;51265;53.972;12.286;2022-08-21T09:35:19;10.63;;;1.75;;
64826;SDS011;51265;53.972;12.286;2022-08-21T09:40:43;5.78;;;1.75;;
64826;SDS011;51265;53.972;12.286;2022-08-21T09:45:37;4.60;;;1.20;;
64826;SDS011;51265;53.972;12.286;2022-08-21T09:48:11;7.97;;;1.92;;
64826;SDS011;51265;53.972;12.286;2022-08-21T09:50:40;7.40;;;1.60;;
64826;SDS011;51265;53.972;12.286;2022-08-21T09:53:15;7.45;;;1.52;;
64826;SDS011;51265;53.972;12.286;2022-08-21T10:01:05;7.15;;;1.77;;
64826;SDS011;51265;53.972;12.286;2022-08-21T10:03:32;6.90;;;1.30;;
64826;SDS011;51265;53.972;12.286;2022-08-21T10:05:59;6.03;;;1.20;;
64826;SDS011;51265;53.972;12.286;2022-08-21T10:08:31;4.25;;;1.35;;
64826;SDS011;51265;53.972;12.286;2022-08-21T10:11:04;5.00;;;0.93;;
64826;SDS011;51265;53.972;12.286;2022-08-21T10:25:08;7.88;;;1.35;;
64826;SDS011;51265;53.972;12.286;2022-08-21T10:30:38;7.43;;;1.38;;
64826;SDS011;51265;53.972;12.286;2022-08-21T10:35:57;8.18;;;1.77;;
64826;SDS011;51265;53.972;12.286;2022-08-21T10:38:52;6.00;;;1.30;;
64826;SDS011;51265;53.972;12.286;2022-08-21T10:41:30;6.35;;;1.48;;
64826;SDS011;51265;53.972;12.286;2022-08-21T10:46:53;8.30;;;1.40;;
64826;SDS011;51265;53.972;12.286;2022-08-21T10:49:34;7.75;;;1.27;;
64826;SDS011;51265;53.972;12.286;2022-08-21T10:52:18;7.03;;;1.58;;
64826;SDS011;51265;53.972;12.286;2022-08-21T10:57:31;3.47;;;1.10;;
64826;SDS011;51265;53.972;12.286;2022-08-21T11:00:07;4.95;;;1.15;;
64826;SDS011;51265;53.972;12.286;2022-08-21T11:10:40;3.92;;;0.95;;
64826;SDS011;51265;53.972;12.286;2022-08-21T11:13:15;4.95;;;1.30;;
64826;SDS011;51265;53.972;12.286;2022-08-21T11:15:49;6.40;;;1.52;;
64826;SDS011;51265;53.972;12.286;2022-08-21T11:18:24;6.20;;;1.40;;
64826;SDS011;51265;53.972;12.286;2022-08-21T11:29:52;5.32;;;1.30;;
64826;SDS011;51265;53.972;12.286;2022-08-21T11:35:12;3.70;;;1.10;;
64826;SDS011;51265;53.972;12.286;2022-08-21T11:38:00;5.30;;;1.52;;
64826;SDS011;51265;53.972;12.286;2022-08-21T11:52:28;6.85;;;1.33;;
64826;SDS011;51265;53.972;12.286;2022-08-21T11:55:07;5.47;;;1.60;;
64826;SDS011;51265;53.972;12.286;2022-08-21T12:00:30;4.93;;;1.30;;
64826;SDS011;51265;53.972;12.286;2022-08-21T12:03:11;8.93;;;1.35;;
64826;SDS011;51265;53.972;12.286;2022-08-21T12:05:41;6.20;;;1.40;;
64826;SDS011;51265;53.972;12.286;2022-08-21T12:08:34;6.00;;;1.30;;
64826;SDS011;51265;53.972;12.286;2022-08-21T12:13:53;5.68;;;1.40;;
64826;SDS011;51265;53.972;12.286;2022-08-21T12:16:33;6.90;;;1.40;;
64826;SDS011;51265;53.972;12.286;2022-08-21T12:24:38;7.53;;;1.92;;
64826;SDS011;51265;53.972;12.286;2022-08-21T12:27:18;7.07;;;1.67;;
64826;SDS011;51265;53.972;12.286;2022-08-21T12:29:47;7.22;;;1.80;;
64826;SDS011;51265;53.972;12.286;2022-08-21T12:37:56;7.95;;;1.20;;
64826;SDS011;51265;53.972;12.286;2022-08-21T12:40:40;4.57;;;1.27;;
64826;SDS011;51265;53.972;12.286;2022-08-21T12:43:13;6.25;;;1.48;;
64826;SDS011;51265;53.972;12.286;2022-08-21T12:45:45;7.50;;;1.52;;
64826;SDS011;51265;53.972;12.286;2022-08-21T12:50:55;4.57;;;1.10;;
64826;SDS011;51265;53.972;12.286;2022-08-21T12:53:41;5.50;;;1.40;;
64826;SDS011;51265;53.972;12.286;2022-08-21T12:56:15;5.68;;;1.00;;
64826;SDS011;51265;53.972;12.286;2022-08-21T12:58:50;5.22;;;1.30;;
64826;SDS011;51265;53.972;12.286;2022-08-21T13:04:13;5.32;;;1.35;;
64826;SDS011;51265;53.972;12.286;2022-08-21T13:06:43;4.82;;;1.17;;
64826;SDS011;51265;53.972;12.286;2022-08-21T13:09:12;7.85;;;1.40;;
64826;SDS011;51265;53.972;12.286;2022-08-21T13:11:41;3.53;;;1.10;;
64826;SDS011;51265;53.972;12.286;2022-08-21T13:14:13;5.35;;;1.27;;
64826;SDS011;51265;53.972;12.286;2022-08-21T13:16:46;2.85;;;1.42;;
64826;SDS011;51265;53.972;12.286;2022-08-21T13:19:16;5.20;;;2.25;;
64826;SDS011;51265;53.972;12.286;2022-08-21T13:21:44;5.00;;;1.42;;
64826;SDS011;51265;53.972;12.286;2022-08-21T13:26:49;5.88;;;1.50;;
64826;SDS011;51265;53.972;12.286;2022-08-21T13:29:16;4.97;;;1.23;;
64826;SDS011;51265;53.972;12.286;2022-08-21T13:31:48;9.95;;;1.60;;
64826;SDS011;51265;53.972;12.286;2022-08-21T13:34:21;6.78;;;1.40;;
64826;SDS011;51265;53.972;12.286;2022-08-21T13:36:50;8.52;;;1.55;;
64826;SDS011;51265;53.972;12.286;2022-08-21T13:39:20;6.82;;;1.55;;
64826;SDS011;51265;53.972;12.286;2022-08-21T13:41:48;2.88;;;1.17;;
64826;SDS011;51265;53.972;12.286;2022-08-21T13:46:47;4.78;;;1.38;;
64826;SDS011;51265;53.972;12.286;2022-08-21T13:49:15;4.65;;;1.50;;
64826;SDS011;51265;53.972;12.286;2022-08-21T13:51:44;3.55;;;1.10;;
64826;SDS011;51265;53.972;12.286;2022-08-21T13:57:01;4.03;;;1.13;;
64826;SDS011;51265;53.972;12.286;2022-08-21T13:59:31;4.45;;;1.25;;
64826;SDS011;51265;53.972;12.286;2022-08-21T14:01:59;4.37;;;1.17;;
64826;SDS011;51265;53.972;12.286;2022-08-21T14:04:38;3.53;;;0.98;;
64826;SDS011;51265;53.972;12.286;2022-08-21T14:07:19;3.10;;;1.02;;
64826;SDS011;51265;53.972;12.286;2022-08-21T14:09:50;4.05;;;0.98;;
64826;SDS011;51265;53.972;12.286;2022-08-21T14:12:17;3.53;;;1.23;;
64826;SDS011;51265;53.972;12.286;2022-08-21T14:14:49;5.35;;;0.98;;
64826;SDS011;51265;53.972;12.286;2022-08-21T14:17:28;2.63;;;1.10;;
64826;SDS011;51265;53.972;12.286;2022-08-21T14:19:56;4.38;;;1.20;;
64826;SDS011;51265;53.972;12.286;2022-08-21T14:22:39;4.63;;;1.33;;
64826;SDS011;51265;53.972;12.286;2022-08-21T14:25:29;5.20;;;0.93;;
64826;SDS011;51265;53.972;12.286;2022-08-21T14:30:53;3.22;;;0.95;;
64826;SDS011;51265;53.972;12.286;2022-08-21T14:33:23;3.85;;;1.08;;
64826;SDS011;51265;53.972;12.286;2022-08-21T14:35:53;3.72;;;1.10;;
64826;SDS011;51265;53.972;12.286;2022-08-21T14:38:20;7.07;;;1.10;;
64826;SDS011;51265;53.972;12.286;2022-08-21T14:40:49;4.13;;;0.80;;
64826;SDS011;51265;53.972;12.286;2022-08-21T14:43:17;6.00;;;1.23;;
64826;SDS011;51265;53.972;12.286;2022-08-21T14:45:44;5.75;;;1.10;;
64826;SDS011;51265;53.972;12.286;2022-08-21T14:48:11;5.88;;;1.40;;
64826;SDS011;51265;53.972;12.286;2022-08-21T14:50:37;4.80;;;1.05;;
64826;SDS011;51265;53.972;12.286;2022-08-21T14:53:04;4.30;;;1.13;;
64826;SDS011;51265;53.972;12.286;2022-08-21T14:55:30;3.50;;;1.10;;
64826;SDS011;51265;53.972;12.286;2022-08-21T14:58:17;4.10;;;1.17;;
64826;SDS011;51265;53.972;12.286;2022-08-21T15:00:43;4.65;;;1.55;;
64826;SDS011;51265;53.972;12.286;2022-08-21T15:03:09;3.30;;;1.25;;
64826;SDS011;51265;53.972;12.286;2022-08-21T15:05:35;5.97;;;1.40;;
64826;SDS011;51265;53.972;12.286;2022-08-21T15:08:01;6.65;;;1.30;;
64826;SDS011;51265;53.972;12.286;2022-08-21T15:10:27;5.97;;;1.60;;
64826;SDS011;51265;53.972;12.286;2022-08-21T15:12:55;6.18;;;1.20;;
64826;SDS011;51265;53.972;12.286;2022-08-21T15:15:21;5.80;;;1.30;;
64826;SDS011;51265;53.972;12.286;2022-08-21T15:17:47;6.13;;;1.23;;
64826;SDS011;51265;53.972;12.286;2022-08-21T15:20:12;3.60;;;1.13;;
64826;SDS011;51265;53.972;12.286;2022-08-21T15:22:39;4.57;;;1.10;;
64826;SDS011;51265;53.972;12.286;2022-08-21T15:25:05;4.85;;;1.27;;
64826;SDS011;51265;53.972;12.286;2022-08-21T15:27:31;5.80;;;1.10;;
64826;SDS011;51265;53.972;12.286;2022-08-21T15:29:57;4.90;;;1.42;;
64826;SDS011;51265;53.972;12.286;2022-08-21T15:32:24;2.97;;;0.90;;
64826;SDS011;51265;53.972;12.286;2022-08-21T15:34:55;2.83;;;0.90;;
64826;SDS011;51265;53.972;12.286;2022-08-21T15:37:22;4.00;;;1.23;;
64826;SDS011;51265;53.972;12.286;2022-08-21T15:39:49;5.95;;;1.15;;
64826;SDS011;51265;53.972;12.286;2022-08-21T15:42:17;3.75;;;0.93;;
64826;SDS011;51265;53.972;12.286;2022-08-21T15:44:44;7.32;;;1.25;;
64826;SDS011;51265;53.972;12.286;2022-08-21T15:47:13;4.10;;;1.30;;
64826;SDS011;51265;53.972;12.286;2022-08-21T15:49:41;4.32;;;1.20;;
64826;SDS011;51265;53.972;12.286;2022-08-21T15:52:11;5.18;;;0.95;;
64826;SDS011;51265;53.972;12.286;2022-08-21T15:54:38;4.03;;;1.27;;
64826;SDS011;51265;53.972;12.286;2022-08-21T15:57:04;5.72;;;1.20;;
64826;SDS011;51265;53.972;12.286;2022-08-21T15:59:31;4.25;;;1.10;;
64826;SDS011;51265;53.972;12.286;2022-08-21T16:02:05;4.47;;;1.20;;
64826;SDS011;51265;53.972;12.286;2022-08-21T16:04:35;4.45;;;1.23;;
64826;SDS011;51265;53.972;12.286;2022-08-21T16:07:01;3.80;;;1.00;;
64826;SDS011;51265;53.972;12.286;2022-08-21T16:09:27;4.15;;;0.90;;
64826;SDS011;51265;53.972;12.286;2022-08-21T16:11:53;4.90;;;1.10;;
64826;SDS011;51265;53.972;12.286;2022-08-21T16:14:19;5.18;;;1.33;;
64826;SDS011;51265;53.972;12.286;2022-08-21T16:16:46;3.80;;;1.05;;
64826;SDS011;51265;53.972;12.286;2022-08-21T16:19:12;9.05;;;1.42;;
64826;SDS011;51265;53.972;12.286;2022-08-21T16:21:39;4.35;;;1.15;;
64826;SDS011;51265;53.972;12.286;2022-08-21T16:24:05;6.72;;;1.58;;
64826;SDS011;51265;53.972;12.286;2022-08-21T16:26:31;6.15;;;1.17;;
64826;SDS011;51265;53.972;12.286;2022-08-21T16:28:58;5.82;;;1.30;;